sensor_id;sensor_type;location;lat;lon;timestamp;P1;durP1;ratioP1;P2;durP2;ratioP2
13114;SDS011;6623;52.120;8.660;2023-07-20T00:01:13;2.50;;;0.73;;
13114;SDS011;6623;52.120;8.660;2023-07-20T00:03:39;1.15;;;0.70;;
13114;SDS011;6623;52.120;8.660;2023-07-20T00:06:05;1.02;;;0.70;;
13114;SDS011;6623;52.120;8.660;2023-07-20T00:08:30;1.48;;;0.80;;
13114;SDS011;6623;52.120;8.660;2023-07-20T00:10:56;1.63;;;0.70;;
13114;SDS011;6623;52.120;8.660;2023-07-20T00:13:22;0.70;;;0.70;;
13114;SDS011;6623;52.120;8.660;2023-07-20T00:15:47;0.93;;;0.63;;
13114;SDS011;6623;52.120;8.660;2023-07-20T00:18:13;0.90;;;0.70;;
13114;SDS011;6623;52.120;8.660;2023-07-20T00:20:39;0.90;;;0.70;;
13114;SDS011;6623;52.120;8.660;2023-07-20T00:23:05;0.65;;;0.60;;
13114;SDS011;6623;52.120;8.660;2023-07-20T00:25:30;1.00;;;0.80;;
13114;SDS011;6623;52.120;8.660;2023-07-20T00:27:56;1.00;;;0.70;;
13114;SDS011;6623;52.120;8.660;2023-07-20T00:30:22;1.02;;;0.77;;
13114;SDS011;6623;52.120;8.660;2023-07-20T00:32:47;1.48;;;0.95;;
13114;SDS011;6623;52.120;8.660;2023-07-20T00:35:13;1.15;;;0.80;;
13114;SDS011;6623;52.120;8.660;2023-07-20T00:37:39;1.05;;;0.82;;
13114;SDS011;6623;52.120;8.660;2023-07-20T00:40:05;1.35;;;0.70;;
13114;SDS011;6623;52.120;8.660;2023-07-20T00:42:34;1.67;;;1.02;;
13114;SDS011;6623;52.120;8.660;2023-07-20T00:44:59;1.15;;;0.80;;
13114;SDS011;6623;52.120;8.660;2023-07-20T00:47:25;0.95;;;0.68;;
13114;SDS011;6623;52.120;8.660;2023-07-20T00:49:52;1.70;;;0.70;;
13114;SDS011;6623;52.120;8.660;2023-07-20T00:52:18;1.00;;;0.85;;
13114;SDS011;6623;52.120;8.660;2023-07-20T00:54:45;0.70;;;0.68;;
13114;SDS011;6623;52.120;8.660;2023-07-20T00:57:13;0.85;;;0.65;;
13114;SDS011;6623;52.120;8.660;2023-07-20T00:59:42;0.82;;;0.65;;
13114;SDS011;6623;52.120;8.660;2023-07-20T01:02:08;1.15;;;0.80;;
13114;SDS011;6623;52.120;8.660;2023-07-20T01:04:34;1.10;;;0.60;;
13114;SDS011;6623;52.120;8.660;2023-07-20T01:07:01;0.75;;;0.70;;
13114;SDS011;6623;52.120;8.660;2023-07-20T01:09:30;0.90;;;0.80;;
13114;SDS011;6623;52.120;8.660;2023-07-20T01:12:06;1.15;;;0.70;;
13114;SDS011;6623;52.120;8.660;2023-07-20T01:14:47;1.42;;;0.90;;
13114;SDS011;6623;52.120;8.660;2023-07-20T01:17:14;0.70;;;0.50;;
13114;SDS011;6623;52.120;8.660;2023-07-20T01:19:39;1.15;;;0.88;;
13114;SDS011;6623;52.120;8.660;2023-07-20T01:23:07;0.95;;;0.60;;
13114;SDS011;6623;52.120;8.660;2023-07-20T01:33:31;0.88;;;0.70;;
13114;SDS011;6623;52.120;8.660;2023-07-20T01:35:58;0.90;;;0.60;;
13114;SDS011;6623;52.120;8.660;2023-07-20T01:38:25;0.88;;;0.70;;
13114;SDS011;6623;52.120;8.660;2023-07-20T01:40:51;0.98;;;0.63;;
13114;SDS011;6623;52.120;8.660;2023-07-20T01:43:17;1.27;;;0.70;;
13114;SDS011;6623;52.120;8.660;2023-07-20T01:45:43;0.93;;;0.75;;
13114;SDS011;6623;52.120;8.660;2023-07-20T01:48:09;0.80;;;0.52;;
13114;SDS011;6623;52.120;8.660;2023-07-20T01:50:35;1.00;;;0.70;;
13114;SDS011;6623;52.120;8.660;2023-07-20T01:53:01;0.80;;;0.50;;
13114;SDS011;6623;52.120;8.660;2023-07-20T01:55:26;1.95;;;0.77;;
13114;SDS011;6623;52.120;8.660;2023-07-20T01:57:52;1.85;;;0.73;;
13114;SDS011;6623;52.120;8.660;2023-07-20T02:00:18;1.20;;;0.70;;
13114;SDS011;6623;52.120;8.660;2023-07-20T02:02:46;0.80;;;0.50;;
13114;SDS011;6623;52.120;8.660;2023-07-20T02:05:12;0.93;;;0.88;;
13114;SDS011;6623;52.120;8.660;2023-07-20T02:07:37;1.50;;;0.75;;
13114;SDS011;6623;52.120;8.660;2023-07-20T02:10:03;0.73;;;0.50;;
13114;SDS011;6623;52.120;8.660;2023-07-20T02:12:29;0.60;;;0.60;;
13114;SDS011;6623;52.120;8.660;2023-07-20T02:14:54;1.08;;;0.60;;
13114;SDS011;6623;52.120;8.660;2023-07-20T02:17:20;1.48;;;0.70;;
13114;SDS011;6623;52.120;8.660;2023-07-20T02:19:46;1.42;;;0.90;;
13114;SDS011;6623;52.120;8.660;2023-07-20T02:22:14;0.80;;;0.60;;
13114;SDS011;6623;52.120;8.660;2023-07-20T02:24:40;0.90;;;0.52;;
13114;SDS011;6623;52.120;8.660;2023-07-20T02:27:05;0.63;;;0.63;;
13114;SDS011;6623;52.120;8.660;2023-07-20T02:29:32;0.60;;;0.60;;
13114;SDS011;6623;52.120;8.660;2023-07-20T02:31:57;1.20;;;0.60;;
13114;SDS011;6623;52.120;8.660;2023-07-20T02:34:22;1.00;;;0.60;;
13114;SDS011;6623;52.120;8.660;2023-07-20T02:36:49;1.27;;;0.55;;
13114;SDS011;6623;52.120;8.660;2023-07-20T02:39:14;1.13;;;0.68;;
13114;SDS011;6623;52.120;8.660;2023-07-20T02:41:40;0.73;;;0.60;;
13114;SDS011;6623;52.120;8.660;2023-07-20T02:44:06;1.23;;;0.80;;
13114;SDS011;6623;52.120;8.660;2023-07-20T02:46:32;1.27;;;0.70;;
13114;SDS011;6623;52.120;8.660;2023-07-20T02:48:57;1.45;;;0.80;;
13114;SDS011;6623;52.120;8.660;2023-07-20T02:51:23;2.75;;;0.68;;
13114;SDS011;6623;52.120;8.660;2023-07-20T02:53:48;0.50;;;0.50;;
13114;SDS011;6623;52.120;8.660;2023-07-20T02:56:14;0.88;;;0.60;;
13114;SDS011;6623;52.120;8.660;2023-07-20T02:58:41;0.88;;;0.57;;
13114;SDS011;6623;52.120;8.660;2023-07-20T03:01:10;1.50;;;0.77;;
13114;SDS011;6623;52.120;8.660;2023-07-20T03:03:37;0.55;;;0.50;;
13114;SDS011;6623;52.120;8.660;2023-07-20T03:06:03;0.98;;;0.70;;
13114;SDS011;6623;52.120;8.660;2023-07-20T03:08:33;1.33;;;0.70;;
13114;SDS011;6623;52.120;8.660;2023-07-20T03:10:59;0.50;;;0.50;;
13114;SDS011;6623;52.120;8.660;2023-07-20T03:13:24;0.95;;;0.70;;
13114;SDS011;6623;52.120;8.660;2023-07-20T03:15:51;1.10;;;0.80;;
13114;SDS011;6623;52.120;8.660;2023-07-20T03:18:17;1.52;;;0.50;;
13114;SDS011;6623;52.120;8.660;2023-07-20T03:20:43;0.73;;;0.60;;
13114;SDS011;6623;52.120;8.660;2023-07-20T03:23:08;1.60;;;0.70;;
13114;SDS011;6623;52.120;8.660;2023-07-20T03:25:34;0.73;;;0.60;;
13114;SDS011;6623;52.120;8.660;2023-07-20T03:28:02;0.75;;;0.70;;
13114;SDS011;6623;52.120;8.660;2023-07-20T03:30:28;2.00;;;0.90;;
13114;SDS011;6623;52.120;8.660;2023-07-20T03:32:53;0.57;;;0.50;;
13114;SDS011;6623;52.120;8.660;2023-07-20T03:35:19;0.98;;;0.60;;
13114;SDS011;6623;52.120;8.660;2023-07-20T03:37:44;1.75;;;0.60;;
13114;SDS011;6623;52.120;8.660;2023-07-20T03:40:10;0.98;;;0.65;;
13114;SDS011;6623;52.120;8.660;2023-07-20T03:42:36;0.52;;;0.50;;
13114;SDS011;6623;52.120;8.660;2023-07-20T03:45:01;0.65;;;0.60;;
13114;SDS011;6623;52.120;8.660;2023-07-20T03:47:28;0.60;;;0.45;;
13114;SDS011;6623;52.120;8.660;2023-07-20T03:49:53;0.40;;;0.40;;
13114;SDS011;6623;52.120;8.660;2023-07-20T03:52:19;0.80;;;0.70;;
13114;SDS011;6623;52.120;8.660;2023-07-20T03:54:44;0.93;;;0.60;;
13114;SDS011;6623;52.120;8.660;2023-07-20T03:57:10;1.60;;;0.50;;
13114;SDS011;6623;52.120;8.660;2023-07-20T03:59:37;0.47;;;0.40;;
13114;SDS011;6623;52.120;8.660;2023-07-20T04:02:04;1.13;;;0.60;;
13114;SDS011;6623;52.120;8.660;2023-07-20T04:04:30;0.93;;;0.60;;
13114;SDS011;6623;52.120;8.660;2023-07-20T04:06:56;0.77;;;0.60;;
13114;SDS011;6623;52.120;8.660;2023-07-20T04:09:22;0.50;;;0.50;;
13114;SDS011;6623;52.120;8.660;2023-07-20T04:11:47;0.77;;;0.68;;
13114;SDS011;6623;52.120;8.660;2023-07-20T04:14:13;0.70;;;0.50;;
13114;SDS011;6623;52.120;8.660;2023-07-20T04:16:38;0.50;;;0.50;;
13114;SDS011;6623;52.120;8.660;2023-07-20T04:19:04;0.50;;;0.50;;
13114;SDS011;6623;52.120;8.660;2023-07-20T04:21:29;0.75;;;0.50;;
13114;SDS011;6623;52.120;8.660;2023-07-20T04:23:55;0.70;;;0.60;;
13114;SDS011;6623;52.120;8.660;2023-07-20T04:26:21;0.82;;;0.50;;
13114;SDS011;6623;52.120;8.660;2023-07-20T04:28:46;0.57;;;0.50;;
13114;SDS011;6623;52.120;8.660;2023-07-20T04:31:13;0.50;;;0.50;;
13114;SDS011;6623;52.120;8.660;2023-07-20T04:33:39;0.57;;;0.57;;
13114;SDS011;6623;52.120;8.660;2023-07-20T04:36:05;0.90;;;0.60;;
13114;SDS011;6623;52.120;8.660;2023-07-20T04:38:32;0.40;;;0.40;;
13114;SDS011;6623;52.120;8.660;2023-07-20T04:40:58;0.50;;;0.40;;
13114;SDS011;6623;52.120;8.660;2023-07-20T04:43:23;0.70;;;0.40;;
13114;SDS011;6623;52.120;8.660;2023-07-20T04:45:49;0.60;;;0.50;;
13114;SDS011;6623;52.120;8.660;2023-07-20T04:48:16;0.85;;;0.60;;
13114;SDS011;6623;52.120;8.660;2023-07-20T04:50:42;0.50;;;0.45;;
13114;SDS011;6623;52.120;8.660;2023-07-20T04:53:11;0.90;;;0.68;;
13114;SDS011;6623;52.120;8.660;2023-07-20T04:55:38;0.40;;;0.40;;
13114;SDS011;6623;52.120;8.660;2023-07-20T04:58:04;0.85;;;0.47;;
13114;SDS011;6623;52.120;8.660;2023-07-20T05:00:31;0.73;;;0.50;;
13114;SDS011;6623;52.120;8.660;2023-07-20T05:02:58;0.88;;;0.63;;
13114;SDS011;6623;52.120;8.660;2023-07-20T05:05:24;0.52;;;0.50;;
13114;SDS011;6623;52.120;8.660;2023-07-20T05:07:49;0.32;;;0.32;;
13114;SDS011;6623;52.120;8.660;2023-07-20T05:10:15;0.47;;;0.47;;
13114;SDS011;6623;52.120;8.660;2023-07-20T05:12:41;0.55;;;0.50;;
13114;SDS011;6623;52.120;8.660;2023-07-20T05:15:06;0.45;;;0.40;;
13114;SDS011;6623;52.120;8.660;2023-07-20T05:17:32;0.77;;;0.32;;
13114;SDS011;6623;52.120;8.660;2023-07-20T05:19:58;0.32;;;0.32;;
13114;SDS011;6623;52.120;8.660;2023-07-20T05:22:23;0.68;;;0.55;;
13114;SDS011;6623;52.120;8.660;2023-07-20T05:24:49;0.63;;;0.38;;
13114;SDS011;6623;52.120;8.660;2023-07-20T05:27:15;0.70;;;0.50;;
13114;SDS011;6623;52.120;8.660;2023-07-20T05:29:44;0.50;;;0.40;;
13114;SDS011;6623;52.120;8.660;2023-07-20T05:32:10;0.55;;;0.45;;
13114;SDS011;6623;52.120;8.660;2023-07-20T05:34:36;0.65;;;0.40;;
13114;SDS011;6623;52.120;8.660;2023-07-20T05:37:01;0.60;;;0.50;;
13114;SDS011;6623;52.120;8.660;2023-07-20T05:39:27;0.65;;;0.43;;
13114;SDS011;6623;52.120;8.660;2023-07-20T05:41:52;0.80;;;0.57;;
13114;SDS011;6623;52.120;8.660;2023-07-20T05:44:18;0.77;;;0.50;;
13114;SDS011;6623;52.120;8.660;2023-07-20T05:46:43;0.50;;;0.40;;
13114;SDS011;6623;52.120;8.660;2023-07-20T05:49:09;0.45;;;0.40;;
13114;SDS011;6623;52.120;8.660;2023-07-20T05:51:35;0.50;;;0.47;;
13114;SDS011;6623;52.120;8.660;2023-07-20T05:54:01;0.75;;;0.40;;
13114;SDS011;6623;52.120;8.660;2023-07-20T05:56:26;1.48;;;0.47;;
13114;SDS011;6623;52.120;8.660;2023-07-20T05:58:52;0.63;;;0.52;;
13114;SDS011;6623;52.120;8.660;2023-07-20T06:01:17;0.80;;;0.50;;
13114;SDS011;6623;52.120;8.660;2023-07-20T06:03:44;0.30;;;0.30;;
13114;SDS011;6623;52.120;8.660;2023-07-20T06:06:09;1.33;;;0.40;;
13114;SDS011;6623;52.120;8.660;2023-07-20T06:08:37;0.50;;;0.30;;
13114;SDS011;6623;52.120;8.660;2023-07-20T06:11:02;0.40;;;0.40;;
13114;SDS011;6623;52.120;8.660;2023-07-20T06:13:28;0.30;;;0.30;;
13114;SDS011;6623;52.120;8.660;2023-07-20T06:15:53;2.08;;;0.52;;
13114;SDS011;6623;52.120;8.660;2023-07-20T06:18:20;0.60;;;0.40;;
13114;SDS011;6623;52.120;8.660;2023-07-20T06:20:50;0.50;;;0.50;;
13114;SDS011;6623;52.120;8.660;2023-07-20T06:23:17;0.80;;;0.40;;
13114;SDS011;6623;52.120;8.660;2023-07-20T06:25:44;0.55;;;0.43;;
13114;SDS011;6623;52.120;8.660;2023-07-20T06:28:09;0.40;;;0.40;;
13114;SDS011;6623;52.120;8.660;2023-07-20T06:30:35;0.65;;;0.50;;
13114;SDS011;6623;52.120;8.660;2023-07-20T06:33:00;0.40;;;0.32;;
13114;SDS011;6623;52.120;8.660;2023-07-20T06:35:26;0.60;;;0.50;;
13114;SDS011;6623;52.120;8.660;2023-07-20T06:37:52;0.75;;;0.40;;
13114;SDS011;6623;52.120;8.660;2023-07-20T06:40:17;2.15;;;0.50;;
13114;SDS011;6623;52.120;8.660;2023-07-20T06:42:43;0.57;;;0.45;;
13114;SDS011;6623;52.120;8.660;2023-07-20T06:45:09;0.50;;;0.50;;
13114;SDS011;6623;52.120;8.660;2023-07-20T06:47:34;0.40;;;0.32;;
13114;SDS011;6623;52.120;8.660;2023-07-20T06:50:02;0.40;;;0.38;;
13114;SDS011;6623;52.120;8.660;2023-07-20T06:52:28;0.40;;;0.40;;
13114;SDS011;6623;52.120;8.660;2023-07-20T06:54:54;0.30;;;0.30;;
13114;SDS011;6623;52.120;8.660;2023-07-20T06:57:19;0.40;;;0.30;;
13114;SDS011;6623;52.120;8.660;2023-07-20T06:59:45;1.05;;;0.50;;
13114;SDS011;6623;52.120;8.660;2023-07-20T07:02:10;0.75;;;0.50;;
13114;SDS011;6623;52.120;8.660;2023-07-20T07:04:36;0.32;;;0.32;;
13114;SDS011;6623;52.120;8.660;2023-07-20T07:07:01;0.30;;;0.30;;
13114;SDS011;6623;52.120;8.660;2023-07-20T07:09:28;1.20;;;0.40;;
13114;SDS011;6623;52.120;8.660;2023-07-20T07:11:53;0.73;;;0.40;;
13114;SDS011;6623;52.120;8.660;2023-07-20T07:14:19;0.73;;;0.40;;
13114;SDS011;6623;52.120;8.660;2023-07-20T07:16:45;0.90;;;0.50;;
13114;SDS011;6623;52.120;8.660;2023-07-20T07:19:11;0.40;;;0.40;;
13114;SDS011;6623;52.120;8.660;2023-07-20T07:21:37;0.55;;;0.40;;
13114;SDS011;6623;52.120;8.660;2023-07-20T07:24:02;0.65;;;0.40;;
13114;SDS011;6623;52.120;8.660;2023-07-20T07:26:28;0.43;;;0.38;;
13114;SDS011;6623;52.120;8.660;2023-07-20T07:28:54;0.40;;;0.40;;
13114;SDS011;6623;52.120;8.660;2023-07-20T07:31:19;0.32;;;0.32;;
13114;SDS011;6623;52.120;8.660;2023-07-20T07:33:45;0.52;;;0.40;;
13114;SDS011;6623;52.120;8.660;2023-07-20T07:36:11;0.63;;;0.40;;
13114;SDS011;6623;52.120;8.660;2023-07-20T07:38:37;0.88;;;0.50;;
13114;SDS011;6623;52.120;8.660;2023-07-20T07:41:03;0.73;;;0.40;;
13114;SDS011;6623;52.120;8.660;2023-07-20T07:43:28;0.50;;;0.40;;
13114;SDS011;6623;52.120;8.660;2023-07-20T07:45:54;0.75;;;0.40;;
13114;SDS011;6623;52.120;8.660;2023-07-20T07:48:20;0.52;;;0.40;;
13114;SDS011;6623;52.120;8.660;2023-07-20T07:50:47;0.55;;;0.40;;
13114;SDS011;6623;52.120;8.660;2023-07-20T07:53:12;0.88;;;0.40;;
13114;SDS011;6623;52.120;8.660;2023-07-20T07:55:38;1.02;;;0.40;;
13114;SDS011;6623;52.120;8.660;2023-07-20T07:58:04;0.90;;;0.40;;
13114;SDS011;6623;52.120;8.660;2023-07-20T08:00:29;0.47;;;0.43;;
13114;SDS011;6623;52.120;8.660;2023-07-20T08:02:55;0.52;;;0.40;;
13114;SDS011;6623;52.120;8.660;2023-07-20T08:05:20;0.50;;;0.40;;
13114;SDS011;6623;52.120;8.660;2023-07-20T08:07:46;0.73;;;0.35;;
13114;SDS011;6623;52.120;8.660;2023-07-20T08:10:11;1.48;;;0.52;;
13114;SDS011;6623;52.120;8.660;2023-07-20T08:12:37;0.73;;;0.47;;
13114;SDS011;6623;52.120;8.660;2023-07-20T08:15:03;0.50;;;0.40;;
13114;SDS011;6623;52.120;8.660;2023-07-20T08:17:29;0.40;;;0.38;;
13114;SDS011;6623;52.120;8.660;2023-07-20T08:19:54;1.77;;;0.50;;
13114;SDS011;6623;52.120;8.660;2023-07-20T08:22:20;0.77;;;0.40;;
13114;SDS011;6623;52.120;8.660;2023-07-20T08:24:45;1.85;;;0.40;;
13114;SDS011;6623;52.120;8.660;2023-07-20T08:27:11;0.50;;;0.38;;
13114;SDS011;6623;52.120;8.660;2023-07-20T08:29:37;0.63;;;0.40;;
13114;SDS011;6623;52.120;8.660;2023-07-20T08:32:03;0.55;;;0.40;;
13114;SDS011;6623;52.120;8.660;2023-07-20T08:34:29;0.73;;;0.52;;
13114;SDS011;6623;52.120;8.660;2023-07-20T08:36:55;0.65;;;0.40;;
13114;SDS011;6623;52.120;8.660;2023-07-20T08:39:21;1.13;;;0.40;;
13114;SDS011;6623;52.120;8.660;2023-07-20T08:41:47;0.77;;;0.40;;
13114;SDS011;6623;52.120;8.660;2023-07-20T08:44:13;0.93;;;0.40;;
13114;SDS011;6623;52.120;8.660;2023-07-20T08:46:40;1.45;;;0.40;;
13114;SDS011;6623;52.120;8.660;2023-07-20T08:49:06;0.40;;;0.40;;
13114;SDS011;6623;52.120;8.660;2023-07-20T08:51:32;0.40;;;0.40;;
13114;SDS011;6623;52.120;8.660;2023-07-20T08:54:00;0.95;;;0.40;;
13114;SDS011;6623;52.120;8.660;2023-07-20T08:56:26;1.58;;;0.50;;
13114;SDS011;6623;52.120;8.660;2023-07-20T08:58:53;0.30;;;0.30;;
13114;SDS011;6623;52.120;8.660;2023-07-20T09:01:21;0.43;;;0.40;;
13114;SDS011;6623;52.120;8.660;2023-07-20T09:03:47;0.50;;;0.30;;
13114;SDS011;6623;52.120;8.660;2023-07-20T09:06:14;0.70;;;0.40;;
13114;SDS011;6623;52.120;8.660;2023-07-20T09:08:41;0.50;;;0.38;;
13114;SDS011;6623;52.120;8.660;2023-07-20T09:11:07;0.55;;;0.40;;
13114;SDS011;6623;52.120;8.660;2023-07-20T09:13:33;0.30;;;0.30;;
13114;SDS011;6623;52.120;8.660;2023-07-20T09:15:59;0.63;;;0.50;;
13114;SDS011;6623;52.120;8.660;2023-07-20T09:18:25;0.55;;;0.40;;
13114;SDS011;6623;52.120;8.660;2023-07-20T09:21:01;0.90;;;0.40;;
13114;SDS011;6623;52.120;8.660;2023-07-20T09:23:34;0.43;;;0.40;;
13114;SDS011;6623;52.120;8.660;2023-07-20T09:26:09;0.55;;;0.43;;
13114;SDS011;6623;52.120;8.660;2023-07-20T09:28:42;0.70;;;0.40;;
13114;SDS011;6623;52.120;8.660;2023-07-20T09:31:15;0.52;;;0.40;;
13114;SDS011;6623;52.120;8.660;2023-07-20T09:33:42;0.40;;;0.40;;
13114;SDS011;6623;52.120;8.660;2023-07-20T09:36:09;0.88;;;0.40;;
13114;SDS011;6623;52.120;8.660;2023-07-20T09:38:36;0.38;;;0.38;;
13114;SDS011;6623;52.120;8.660;2023-07-20T09:41:02;0.60;;;0.40;;
13114;SDS011;6623;52.120;8.660;2023-07-20T09:43:30;0.40;;;0.30;;
13114;SDS011;6623;52.120;8.660;2023-07-20T09:45:57;0.25;;;0.25;;
13114;SDS011;6623;52.120;8.660;2023-07-20T09:48:24;0.30;;;0.30;;
13114;SDS011;6623;52.120;8.660;2023-07-20T09:50:51;0.50;;;0.40;;
13114;SDS011;6623;52.120;8.660;2023-07-20T09:53:17;0.20;;;0.20;;
13114;SDS011;6623;52.120;8.660;2023-07-20T09:55:44;0.73;;;0.45;;
13114;SDS011;6623;52.120;8.660;2023-07-20T09:58:11;0.45;;;0.38;;
13114;SDS011;6623;52.120;8.660;2023-07-20T10:00:38;1.13;;;0.40;;
13114;SDS011;6623;52.120;8.660;2023-07-20T10:03:05;0.60;;;0.30;;
13114;SDS011;6623;52.120;8.660;2023-07-20T10:05:32;0.40;;;0.40;;
13114;SDS011;6623;52.120;8.660;2023-07-20T10:08:00;0.63;;;0.47;;
13114;SDS011;6623;52.120;8.660;2023-07-20T10:10:27;0.40;;;0.40;;
13114;SDS011;6623;52.120;8.660;2023-07-20T10:12:53;0.73;;;0.40;;
13114;SDS011;6623;52.120;8.660;2023-07-20T10:15:36;0.70;;;0.30;;
13114;SDS011;6623;52.120;8.660;2023-07-20T10:20:53;0.73;;;0.50;;
13114;SDS011;6623;52.120;8.660;2023-07-20T10:23:20;0.80;;;0.50;;
13114;SDS011;6623;52.120;8.660;2023-07-20T10:25:47;0.40;;;0.40;;
13114;SDS011;6623;52.120;8.660;2023-07-20T10:28:13;0.40;;;0.30;;
13114;SDS011;6623;52.120;8.660;2023-07-20T10:30:39;0.52;;;0.40;;
13114;SDS011;6623;52.120;8.660;2023-07-20T10:33:06;0.50;;;0.40;;
13114;SDS011;6623;52.120;8.660;2023-07-20T10:35:50;0.43;;;0.30;;
13114;SDS011;6623;52.120;8.660;2023-07-20T10:38:19;1.17;;;0.40;;
13114;SDS011;6623;52.120;8.660;2023-07-20T10:41:02;0.22;;;0.22;;
13114;SDS011;6623;52.120;8.660;2023-07-20T10:43:28;0.80;;;0.32;;
13114;SDS011;6623;52.120;8.660;2023-07-20T10:45:53;0.73;;;0.47;;
13114;SDS011;6623;52.120;8.660;2023-07-20T10:48:20;0.95;;;0.32;;
13114;SDS011;6623;52.120;8.660;2023-07-20T10:53:39;0.43;;;0.40;;
13114;SDS011;6623;52.120;8.660;2023-07-20T10:56:08;0.65;;;0.40;;
13114;SDS011;6623;52.120;8.660;2023-07-20T10:58:38;0.30;;;0.30;;
13114;SDS011;6623;52.120;8.660;2023-07-20T11:01:04;0.30;;;0.30;;
13114;SDS011;6623;52.120;8.660;2023-07-20T11:03:35;0.30;;;0.30;;
13114;SDS011;6623;52.120;8.660;2023-07-20T11:09:02;0.60;;;0.50;;
13114;SDS011;6623;52.120;8.660;2023-07-20T11:11:40;0.60;;;0.40;;
13114;SDS011;6623;52.120;8.660;2023-07-20T11:16:48;1.17;;;0.40;;
13114;SDS011;6623;52.120;8.660;2023-07-20T11:19:18;0.52;;;0.50;;
13114;SDS011;6623;52.120;8.660;2023-07-20T11:21:46;0.38;;;0.32;;
13114;SDS011;6623;52.120;8.660;2023-07-20T11:24:15;0.50;;;0.40;;
13114;SDS011;6623;52.120;8.660;2023-07-20T11:26:44;0.40;;;0.40;;
13114;SDS011;6623;52.120;8.660;2023-07-20T11:29:15;0.65;;;0.40;;
13114;SDS011;6623;52.120;8.660;2023-07-20T11:31:41;0.45;;;0.43;;
13114;SDS011;6623;52.120;8.660;2023-07-20T11:34:10;0.75;;;0.55;;
13114;SDS011;6623;52.120;8.660;2023-07-20T11:36:43;0.43;;;0.43;;
13114;SDS011;6623;52.120;8.660;2023-07-20T11:39:16;0.57;;;0.40;;
13114;SDS011;6623;52.120;8.660;2023-07-20T11:41:46;0.50;;;0.40;;
13114;SDS011;6623;52.120;8.660;2023-07-20T11:44:16;0.55;;;0.30;;
13114;SDS011;6623;52.120;8.660;2023-07-20T11:46:43;0.45;;;0.43;;
13114;SDS011;6623;52.120;8.660;2023-07-20T11:49:09;0.38;;;0.30;;
13114;SDS011;6623;52.120;8.660;2023-07-20T11:51:39;0.63;;;0.40;;
13114;SDS011;6623;52.120;8.660;2023-07-20T11:54:06;0.40;;;0.40;;
13114;SDS011;6623;52.120;8.660;2023-07-20T11:56:33;0.40;;;0.40;;
13114;SDS011;6623;52.120;8.660;2023-07-20T11:58:58;0.50;;;0.40;;
13114;SDS011;6623;52.120;8.660;2023-07-20T12:01:26;1.30;;;0.43;;
13114;SDS011;6623;52.120;8.660;2023-07-20T12:04:00;0.80;;;0.50;;
13114;SDS011;6623;52.120;8.660;2023-07-20T12:06:29;0.88;;;0.50;;
13114;SDS011;6623;52.120;8.660;2023-07-20T12:08:58;0.40;;;0.40;;
13114;SDS011;6623;52.120;8.660;2023-07-20T12:13:57;0.50;;;0.30;;
13114;SDS011;6623;52.120;8.660;2023-07-20T12:16:26;0.90;;;0.40;;
13114;SDS011;6623;52.120;8.660;2023-07-20T12:18:59;0.52;;;0.38;;
13114;SDS011;6623;52.120;8.660;2023-07-20T12:21:30;0.70;;;0.32;;
13114;SDS011;6623;52.120;8.660;2023-07-20T12:23:56;0.93;;;0.60;;
13114;SDS011;6623;52.120;8.660;2023-07-20T12:26:23;0.50;;;0.38;;
13114;SDS011;6623;52.120;8.660;2023-07-20T12:28:50;0.32;;;0.30;;
13114;SDS011;6623;52.120;8.660;2023-07-20T12:31:15;0.47;;;0.47;;
13114;SDS011;6623;52.120;8.660;2023-07-20T12:33:41;0.68;;;0.43;;
13114;SDS011;6623;52.120;8.660;2023-07-20T12:36:08;0.50;;;0.50;;
13114;SDS011;6623;52.120;8.660;2023-07-20T12:38:34;0.52;;;0.40;;
13114;SDS011;6623;52.120;8.660;2023-07-20T12:41:00;0.45;;;0.40;;
13114;SDS011;6623;52.120;8.660;2023-07-20T12:43:26;0.80;;;0.52;;
13114;SDS011;6623;52.120;8.660;2023-07-20T12:45:52;0.68;;;0.50;;
13114;SDS011;6623;52.120;8.660;2023-07-20T12:48:18;0.65;;;0.50;;
13114;SDS011;6623;52.120;8.660;2023-07-20T12:50:43;0.47;;;0.43;;
13114;SDS011;6623;52.120;8.660;2023-07-20T12:53:09;0.57;;;0.50;;
13114;SDS011;6623;52.120;8.660;2023-07-20T12:55:34;0.70;;;0.60;;
13114;SDS011;6623;52.120;8.660;2023-07-20T12:58:00;0.60;;;0.50;;
13114;SDS011;6623;52.120;8.660;2023-07-20T13:00:26;0.47;;;0.47;;
13114;SDS011;6623;52.120;8.660;2023-07-20T13:02:51;0.50;;;0.50;;
13114;SDS011;6623;52.120;8.660;2023-07-20T13:05:17;1.42;;;0.60;;
13114;SDS011;6623;52.120;8.660;2023-07-20T13:07:43;0.43;;;0.43;;
13114;SDS011;6623;52.120;8.660;2023-07-20T13:10:09;0.65;;;0.40;;
13114;SDS011;6623;52.120;8.660;2023-07-20T13:12:36;0.65;;;0.57;;
13114;SDS011;6623;52.120;8.660;2023-07-20T13:15:02;1.02;;;0.60;;
13114;SDS011;6623;52.120;8.660;2023-07-20T13:17:33;1.73;;;0.80;;
13114;SDS011;6623;52.120;8.660;2023-07-20T13:20:03;2.97;;;0.90;;
13114;SDS011;6623;52.120;8.660;2023-07-20T13:22:31;1.33;;;1.00;;
13114;SDS011;6623;52.120;8.660;2023-07-20T13:24:56;1.13;;;0.95;;
13114;SDS011;6623;52.120;8.660;2023-07-20T13:27:22;0.82;;;0.80;;
13114;SDS011;6623;52.120;8.660;2023-07-20T13:29:48;0.90;;;0.90;;
13114;SDS011;6623;52.120;8.660;2023-07-20T13:32:14;1.67;;;1.02;;
13114;SDS011;6623;52.120;8.660;2023-07-20T13:34:40;1.10;;;1.00;;
13114;SDS011;6623;52.120;8.660;2023-07-20T13:37:06;0.93;;;0.90;;
13114;SDS011;6623;52.120;8.660;2023-07-20T13:39:31;1.50;;;0.80;;
13114;SDS011;6623;52.120;8.660;2023-07-20T13:41:57;1.23;;;1.00;;
13114;SDS011;6623;52.120;8.660;2023-07-20T13:44:22;1.23;;;1.00;;
13114;SDS011;6623;52.120;8.660;2023-07-20T13:46:48;1.00;;;0.80;;
13114;SDS011;6623;52.120;8.660;2023-07-20T13:49:14;0.80;;;0.80;;
13114;SDS011;6623;52.120;8.660;2023-07-20T13:51:43;1.05;;;0.90;;
13114;SDS011;6623;52.120;8.660;2023-07-20T13:54:09;2.05;;;1.00;;
13114;SDS011;6623;52.120;8.660;2023-07-20T13:56:35;1.37;;;0.90;;
13114;SDS011;6623;52.120;8.660;2023-07-20T13:59:00;0.82;;;0.82;;
13114;SDS011;6623;52.120;8.660;2023-07-20T14:01:26;0.97;;;0.80;;
13114;SDS011;6623;52.120;8.660;2023-07-20T14:03:53;1.42;;;0.88;;
13114;SDS011;6623;52.120;8.660;2023-07-20T14:06:19;1.83;;;0.80;;
13114;SDS011;6623;52.120;8.660;2023-07-20T14:08:45;1.87;;;0.80;;
13114;SDS011;6623;52.120;8.660;2023-07-20T14:11:12;0.70;;;0.70;;
13114;SDS011;6623;52.120;8.660;2023-07-20T14:13:37;1.20;;;1.00;;
13114;SDS011;6623;52.120;8.660;2023-07-20T14:16:03;0.85;;;0.70;;
13114;SDS011;6623;52.120;8.660;2023-07-20T14:18:29;1.77;;;0.80;;
13114;SDS011;6623;52.120;8.660;2023-07-20T14:20:55;2.13;;;0.90;;
13114;SDS011;6623;52.120;8.660;2023-07-20T14:23:20;2.60;;;0.70;;
13114;SDS011;6623;52.120;8.660;2023-07-20T14:25:46;2.38;;;0.70;;
13114;SDS011;6623;52.120;8.660;2023-07-20T14:28:12;1.00;;;0.90;;
13114;SDS011;6623;52.120;8.660;2023-07-20T14:30:38;3.00;;;1.30;;
13114;SDS011;6623;52.120;8.660;2023-07-20T14:33:04;3.37;;;1.00;;
13114;SDS011;6623;52.120;8.660;2023-07-20T14:35:29;2.27;;;1.10;;
13114;SDS011;6623;52.120;8.660;2023-07-20T14:37:55;1.10;;;1.00;;
13114;SDS011;6623;52.120;8.660;2023-07-20T14:40:20;1.50;;;1.00;;
13114;SDS011;6623;52.120;8.660;2023-07-20T14:42:46;0.80;;;0.80;;
13114;SDS011;6623;52.120;8.660;2023-07-20T14:45:11;1.23;;;1.10;;
13114;SDS011;6623;52.120;8.660;2023-07-20T14:47:37;2.47;;;0.93;;
13114;SDS011;6623;52.120;8.660;2023-07-20T14:50:03;0.90;;;0.77;;
13114;SDS011;6623;52.120;8.660;2023-07-20T14:52:29;1.10;;;0.80;;
13114;SDS011;6623;52.120;8.660;2023-07-20T14:54:54;2.20;;;0.82;;
13114;SDS011;6623;52.120;8.660;2023-07-20T14:57:20;1.20;;;0.70;;
13114;SDS011;6623;52.120;8.660;2023-07-20T14:59:54;1.40;;;0.87;;
13114;SDS011;6623;52.120;8.660;2023-07-20T15:02:20;3.90;;;0.90;;
13114;SDS011;6623;52.120;8.660;2023-07-20T15:04:46;2.10;;;0.77;;
13114;SDS011;6623;52.120;8.660;2023-07-20T15:07:14;2.30;;;0.80;;
13114;SDS011;6623;52.120;8.660;2023-07-20T15:09:49;1.97;;;1.00;;
13114;SDS011;6623;52.120;8.660;2023-07-20T15:12:15;0.70;;;0.60;;
13114;SDS011;6623;52.120;8.660;2023-07-20T15:14:41;7.47;;;0.80;;
13114;SDS011;6623;52.120;8.660;2023-07-20T15:17:08;1.17;;;0.63;;
13114;SDS011;6623;52.120;8.660;2023-07-20T15:19:34;2.27;;;0.70;;